Bookmark and Share
Track history (hours):
 

Blue Force One

Last reported at 2014-Apr-11 20:14 UTC. Time now 2014-Apr-21 10:19 UTC.
Position N 25°43' W 080°13'.
Warning: this ship's position is 9 days out of date.

Length 35 m.

Type: Pleasure craft. MMSI: 377494000.

NotesDate/timePositionNaut miles runAvg speedWind from/ knotsBaromVisibWave heightAir tempDewpointWater temp
2014-Apr-11 20:14N 25°43' W 080°13'  
2014-Apr-06 17:23N 25°44' W 080°12'4 5.1
2014-Apr-06 16:33N 25°46' W 080°09'0 0.0
2014-Apr-06 15:33N 25°46' W 080°09'0 0.0
2014-Apr-06 14:33N 25°46' W 080°09'0 0.0
2014-Apr-06 13:33N 25°46' W 080°09'0 0.0
2014-Apr-06 12:33N 25°46' W 080°09'0 0.0
2014-Apr-06 11:33N 25°46' W 080°09'0 0.0
2014-Apr-06 10:33N 25°46' W 080°09'0 0.0
2014-Apr-06 09:33N 25°46' W 080°09'0 0.0
2014-Apr-06 08:30N 25°46' W 080°09'0 0.0
2014-Apr-06 07:33N 25°46' W 080°09'0 0.0
2014-Apr-06 06:33N 25°46' W 080°09'0 0.0
2014-Apr-06 05:33N 25°46' W 080°09'0 0.0
2014-Apr-06 04:33N 25°46' W 080°09'0 0.0
2014-Apr-06 03:33N 25°46' W 080°09'0 0.0
2014-Apr-06 02:33N 25°46' W 080°09'0 0.0
2014-Apr-06 01:33N 25°46' W 080°09'0 0.0
2014-Apr-06 00:33N 25°46' W 080°09'0 0.0
2014-Apr-05 23:33N 25°46' W 080°09'0 0.0
2014-Apr-05 22:33N 25°46' W 080°09'4 2.0
2014-Apr-05 20:31N 25°43' W 080°12'4 3.9
2014-Apr-05 19:29N 25°46' W 080°09'0 0.0
2014-Apr-05 18:32N 25°46' W 080°09'0 0.0
2014-Apr-05 17:32N 25°46' W 080°09'0 0.0
2014-Apr-05 16:32N 25°46' W 080°09'0 0.0
2014-Apr-05 15:32N 25°46' W 080°09'0 0.0
2014-Apr-05 14:32N 25°46' W 080°09'0 0.0
2014-Apr-05 13:32N 25°46' W 080°09'0 0.0
2014-Apr-05 12:32N 25°46' W 080°09'0 0.0
2014-Apr-05 11:29N 25°46' W 080°09'0 0.0
2014-Apr-05 10:32N 25°46' W 080°09'0 0.0
2014-Apr-05 09:32N 25°46' W 080°09'0 0.0
2014-Apr-05 08:32N 25°46' W 080°09'0 0.0
2014-Apr-05 07:32N 25°46' W 080°09'0 0.0
2014-Apr-05 06:32N 25°46' W 080°09'0 0.0
2014-Apr-05 05:32N 25°46' W 080°09'0 0.0
2014-Apr-05 04:32N 25°46' W 080°09'0 0.0
2014-Apr-05 03:32N 25°46' W 080°09'0 0.0
2014-Apr-05 02:32N 25°46' W 080°09'0 0.0
2014-Apr-05 01:32N 25°46' W 080°09'0 0.0
2014-Apr-05 00:32N 25°46' W 080°09'0 0.0
2014-Apr-04 23:32N 25°46' W 080°09'0 0.0
2014-Apr-04 22:32N 25°46' W 080°09'0 0.0
2014-Apr-04 21:32N 25°46' W 080°09'0 0.0
2014-Apr-04 20:32N 25°46' W 080°09'0 0.0
2014-Apr-04 19:32N 25°46' W 080°09'0 0.0
2014-Apr-04 18:32N 25°46' W 080°09'0 0.0
2014-Apr-04 17:32N 25°46' W 080°09'0 0.3
2014-Apr-04 16:33N 25°46' W 080°08'0 0.3
2014-Apr-04 15:31N 25°46' W 080°09'0 0.0
2014-Apr-04 14:31N 25°46' W 080°09'0 0.0
2014-Apr-04 13:31N 25°46' W 080°09'0 0.0
2014-Apr-04 12:31N 25°46' W 080°09'0 0.0
2014-Apr-04 11:31N 25°46' W 080°09'0 0.0
2014-Apr-04 10:31N 25°46' W 080°09'0 0.0
2014-Apr-04 09:31N 25°46' W 080°09'0 0.0
2014-Apr-04 08:31N 25°46' W 080°09'0 0.0
2014-Apr-04 07:31N 25°46' W 080°09'0 0.0
2014-Apr-04 06:31N 25°46' W 080°09'0 0.0
2014-Apr-04 05:31N 25°46' W 080°09'0 0.0
2014-Apr-04 04:31N 25°46' W 080°09'0 0.0
2014-Apr-04 03:31N 25°46' W 080°09'0 0.0
2014-Apr-04 02:31N 25°46' W 080°09'0 0.0
2014-Apr-04 01:31N 25°46' W 080°09'0 0.0
2014-Apr-04 00:31N 25°46' W 080°09'0 0.2
2014-Apr-03 23:33N 25°46' W 080°08'2019.3
2014-Apr-03 22:32N 26°06' W 080°07'2 2.3
2014-Apr-03 21:32N 26°06' W 080°10'0 0.2
2014-Apr-03 20:28N 26°06' W 080°10'0 0.0
2014-Apr-03 19:31N 26°06' W 080°10'0 0.0
2014-Apr-03 18:31N 26°06' W 080°10'0 0.0
2014-Apr-03 17:31N 26°06' W 080°10'0 0.0
2014-Apr-03 16:31N 26°06' W 080°10'0 0.0
2014-Apr-03 15:31N 26°06' W 080°10'0 0.0
2014-Apr-03 14:31N 26°06' W 080°10'0 0.0
2014-Apr-03 13:22N 26°06' W 080°10'0 0.0
2014-Apr-03 12:22N 26°06' W 080°10'0 0.0
2014-Apr-03 11:25N 26°06' W 080°10'0 0.0
2014-Apr-03 10:25N 26°06' W 080°10'0 0.0
2014-Apr-03 09:25N 26°06' W 080°10'0 0.0
2014-Apr-03 08:28N 26°06' W 080°10'0 0.0
2014-Apr-03 07:28N 26°06' W 080°10'0 0.0
2014-Apr-03 06:28N 26°06' W 080°10'0 0.0
2014-Apr-03 05:31N 26°06' W 080°10'0 0.0
2014-Apr-03 04:31N 26°06' W 080°10'0 0.0
2014-Apr-03 03:31N 26°06' W 080°10'0 0.0
2014-Apr-03 02:31N 26°06' W 080°10'0 0.0
2014-Apr-03 01:31N 26°06' W 080°10'0 0.0
2014-Apr-03 00:31N 26°06' W 080°10'0 0.0
2014-Apr-02 23:31N 26°06' W 080°10'0 0.0
2014-Apr-02 22:22N 26°06' W 080°10'0 0.0
2014-Apr-02 21:25N 26°06' W 080°10'0 0.0
2014-Apr-02 20:25N 26°06' W 080°10'0 0.0
2014-Apr-02 19:25N 26°06' W 080°10'0 0.0
2014-Apr-02 18:28N 26°06' W 080°10'0 0.0
2014-Apr-02 17:28N 26°06' W 080°10'0 0.0
2014-Apr-02 16:25N 26°06' W 080°10'0 0.0
2014-Apr-02 15:31N 26°06' W 080°10'0 0.0
2014-Apr-02 14:31N 26°06' W 080°10'0 0.0
2014-Apr-02 13:31N 26°06' W 080°10'0 0.1
2014-Apr-02 12:19N 26°06' W 080°10'0 0.1
2014-Apr-02 11:31N 26°06' W 080°10'0 0.0
2014-Apr-02 10:31N 26°06' W 080°10'0 0.0
2014-Apr-02 09:22N 26°06' W 080°10'0 0.0
2014-Apr-02 08:22N 26°06' W 080°10'0 0.0
2014-Apr-02 07:25N 26°06' W 080°10'0 0.0
2014-Apr-02 06:25N 26°06' W 080°10'0 0.0
2014-Apr-02 05:28N 26°06' W 080°10'0 0.0
2014-Apr-02 04:28N 26°06' W 080°10'0 0.0
2014-Apr-02 03:28N 26°06' W 080°10'0 0.0
2014-Apr-02 02:25N 26°06' W 080°10'0 0.0
2014-Apr-02 01:31N 26°06' W 080°10'0 0.0
2014-Apr-02 00:31N 26°06' W 080°10'0 0.0
2014-Apr-01 23:31N 26°06' W 080°10'0 0.0
2014-Apr-01 22:31N 26°06' W 080°10'0 0.0
2014-Apr-01 21:31N 26°06' W 080°10'0 0.0
2014-Apr-01 20:31N 26°06' W 080°10'  

Dump ship's entire track history

sailing weather and tide predictions

Blue Force One — J8Y4328 — position and weather